Time;durP1;ratioP1;P1;durP2;ratioP2;P2;SDS_P1;SDS_P2;PMS_P1;PMS_P2;Temp;Humidity;BMP_temperature;BMP_pressure;BME280_temperature;BME280_humidity;BME280_pressure;Samples;Min_cycle;Max_cycle;Signal;HPM_P1;HPM_P2
2022/12/18 00:01:33;;;;;;;19.75;11.23;;;-3.00;99.90;;;;;;5063164;28;20039;-63
2022/12/18 00:03:59;;;;;;;18.77;11.30;;;-3.00;99.90;;;;;;5062800;28;20048;-63
2022/12/18 00:06:27;;;;;;;21.23;11.63;;;-3.10;99.90;;;;;;5063651;28;20031;-63
2022/12/18 00:08:54;;;;;;;21.75;11.68;;;-3.00;99.90;;;;;;5064289;28;20040;-63
2022/12/18 00:11:23;;;;;;;21.92;12.35;;;-3.00;99.90;;;;;;5059101;28;20652;-63
2022/12/18 00:13:49;;;;;;;22.58;12.43;;;-3.10;99.90;;;;;;5064210;28;20025;-64
2022/12/18 00:16:20;;;;;;;20.63;11.77;;;-3.20;99.90;;;;;;5063303;28;20435;-64
2022/12/18 00:18:46;;;;;;;21.48;11.15;;;-3.20;99.90;;;;;;5057578;28;20044;-63
2022/12/18 00:21:13;;;;;;;20.52;11.82;;;-3.20;99.90;;;;;;5060638;28;20028;-64
2022/12/18 00:23:40;;;;;;;19.48;10.77;;;-3.30;99.90;;;;;;5063249;28;20123;-64
2022/12/18 00:26:15;;;;;;;20.90;11.52;;;-3.30;99.90;;;;;;5060263;28;20037;-65
2022/12/18 00:28:41;;;;;;;20.73;11.43;;;-3.40;99.90;;;;;;5063138;28;20036;-63
2022/12/18 00:31:25;;;;;;;21.13;11.18;;;-3.30;99.90;;;;;;5062708;28;20397;-63
2022/12/18 00:33:50;;;;;;;20.90;11.60;;;-3.10;99.90;;;;;;5060779;28;20043;-63
2022/12/18 00:36:22;;;;;;;23.13;12.27;;;-3.00;99.90;;;;;;5063184;28;20032;-63
2022/12/18 00:38:48;;;;;;;25.55;12.63;;;-3.10;99.90;;;;;;5061409;28;20491;-63
2022/12/18 00:42:55;;;;;;;21.05;12.10;;;-3.10;99.90;;;;;;5062052;28;20039;-64
2022/12/18 00:44:03;;;;;;;21.42;11.13;;;-3.10;99.90;;;;;;5060381;28;20078;-63
2022/12/18 00:46:29;;;;;;;20.38;11.18;;;-3.10;99.90;;;;;;5061583;28;20824;-63
2022/12/18 00:48:54;;;;;;;21.00;11.13;;;-2.90;99.90;;;;;;5061482;28;20045;-64
2022/12/18 00:51:20;;;;;;;18.83;11.40;;;-2.90;99.90;;;;;;5060155;28;20107;-64
2022/12/18 00:53:45;;;;;;;18.70;10.05;;;-3.00;99.90;;;;;;5062554;28;20058;-64
2022/12/18 00:56:11;;;;;;;20.88;11.23;;;-3.00;99.90;;;;;;5059651;28;20031;-64
2022/12/18 00:58:36;;;;;;;21.17;11.30;;;-3.10;99.90;;;;;;5060080;28;20033;-64
2022/12/18 01:01:04;;;;;;;19.85;10.63;;;-3.10;99.90;;;;;;5059449;28;20036;-64
2022/12/18 01:03:30;;;;;;;20.17;10.25;;;-3.10;99.90;;;;;;5058601;28;20090;-64
2022/12/18 01:05:56;;;;;;;18.67;9.95;;;-3.10;99.90;;;;;;5062676;28;20168;-64
2022/12/18 01:08:21;;;;;;;20.13;10.30;;;-3.00;99.90;;;;;;5063265;28;20510;-63
2022/12/18 01:10:47;;;;;;;19.55;10.38;;;-3.00;99.90;;;;;;5061372;28;20903;-64
2022/12/18 01:13:13;;;;;;;17.27;10.68;;;-3.00;99.90;;;;;;5060572;28;20082;-64
2022/12/18 01:15:39;;;;;;;20.75;10.77;;;-2.90;99.90;;;;;;5058705;28;20039;-64
2022/12/18 01:18:06;;;;;;;17.83;10.45;;;-2.80;99.90;;;;;;5060762;28;20068;-64
2022/12/18 01:20:32;;;;;;;19.95;10.70;;;-2.70;99.90;;;;;;5060137;28;20071;-64
2022/12/18 01:22:57;;;;;;;23.92;10.32;;;-2.70;99.90;;;;;;5062099;28;20452;-64
2022/12/18 01:25:23;;;;;;;18.00;10.18;;;-2.70;99.90;;;;;;5060716;28;20119;-64
2022/12/18 01:27:48;;;;;;;19.20;10.25;;;-2.80;99.90;;;;;;5059175;28;20052;-64
2022/12/18 01:30:14;;;;;;;19.52;9.77;;;-2.90;99.90;;;;;;5062964;28;20116;-64
2022/12/18 01:32:39;;;;;;;21.25;10.00;;;-2.90;99.90;;;;;;5058893;28;20056;-64
2022/12/18 01:35:06;;;;;;;19.65;10.52;;;-2.90;99.90;;;;;;5062305;28;20476;-64
2022/12/18 01:37:32;;;;;;;17.30;10.57;;;-2.80;99.90;;;;;;5061341;28;20094;-64
2022/12/18 01:39:57;;;;;;;19.40;10.20;;;-2.80;99.90;;;;;;5059000;28;20048;-64
2022/12/18 01:42:23;;;;;;;17.98;10.15;;;-2.80;99.90;;;;;;5062068;28;20033;-64
2022/12/18 01:44:56;;;;;;;20.08;9.75;;;-2.90;99.90;;;;;;5062055;28;20025;-64
2022/12/18 01:47:34;;;;;;;21.17;10.75;;;-2.80;99.90;;;;;;5061313;28;20041;-64
2022/12/18 01:50:06;;;;;;;19.80;10.57;;;-2.90;99.90;;;;;;5062596;28;20368;-64
2022/12/18 01:52:33;;;;;;;20.17;10.38;;;-2.90;99.90;;;;;;5059196;28;20032;-65
2022/12/18 01:55:00;;;;;;;16.20;9.52;;;-2.90;99.90;;;;;;5062343;28;20124;-64
2022/12/18 01:57:26;;;;;;;19.00;10.77;;;-2.90;99.90;;;;;;5062311;28;20118;-64
2022/12/18 01:59:55;;;;;;;18.70;10.07;;;-2.80;99.90;;;;;;5064953;28;20037;-64
2022/12/18 02:02:21;;;;;;;18.83;10.23;;;-2.80;99.90;;;;;;5066080;28;20094;-64
2022/12/18 02:04:47;;;;;;;21.45;10.70;;;-2.90;99.90;;;;;;5059904;28;20033;-65
2022/12/18 02:07:23;;;;;;;19.20;9.95;;;-2.70;99.90;;;;;;5062520;28;20057;-65
2022/12/18 02:09:51;;;;;;;21.90;11.18;;;-2.70;99.90;;;;;;5064564;28;20496;-64
2022/12/18 02:12:18;;;;;;;19.90;10.43;;;-2.60;99.90;;;;;;5058050;28;20345;-64
2022/12/18 02:15:08;;;;;;;18.35;10.05;;;-2.60;99.90;;;;;;5060694;28;20506;-64
2022/12/18 02:17:54;;;;;;;22.48;10.35;;;-2.70;99.90;;;;;;5062367;28;20483;-64
2022/12/18 02:20:42;;;;;;;20.33;11.05;;;-2.70;99.90;;;;;;5063329;28;20377;-64
2022/12/18 02:23:41;;;;;;;21.75;11.18;;;-2.70;99.90;;;;;;5062454;28;20060;-64
2022/12/18 02:26:26;;;;;;;17.20;9.95;;;-2.70;99.90;;;;;;5060928;28;20032;-64
2022/12/18 02:29:00;;;;;;;18.35;10.55;;;-2.70;99.90;;;;;;5065157;28;20040;-64
2022/12/18 02:31:31;;;;;;;20.33;10.93;;;-2.60;99.90;;;;;;5065683;28;20024;-64
2022/12/18 02:34:01;;;;;;;21.17;10.88;;;-2.70;99.90;;;;;;5063439;28;20033;-64
2022/12/18 02:36:29;;;;;;;19.75;10.60;;;-2.80;99.90;;;;;;5063924;28;20108;-64
2022/12/18 02:38:56;;;;;;;20.08;10.18;;;-2.70;99.90;;;;;;5064274;28;20038;-64
2022/12/18 02:41:22;;;;;;;20.80;10.60;;;-2.90;99.90;;;;;;5062851;28;20105;-64
2022/12/18 02:43:52;;;;;;;19.88;10.35;;;-2.90;99.90;;;;;;5060618;28;20033;-64
2022/12/18 02:46:46;;;;;;;22.15;11.30;;;-2.70;99.90;;;;;;5062215;28;20032;-64
2022/12/18 02:49:34;;;;;;;18.88;10.50;;;-2.80;99.90;;;;;;5061390;28;20131;-64
2022/12/18 02:52:15;;;;;;;18.58;10.35;;;-2.80;99.90;;;;;;5059737;28;20039;-64
2022/12/18 02:54:50;;;;;;;20.38;10.25;;;-2.90;99.90;;;;;;5059605;28;20408;-64
2022/12/18 02:57:30;;;;;;;18.63;10.13;;;-2.80;99.90;;;;;;5064153;28;20032;-64
2022/12/18 03:00:03;;;;;;;20.15;10.80;;;-2.70;99.90;;;;;;5061567;28;20051;-64
2022/12/18 03:03:16;;;;;;;18.95;10.52;;;-2.70;99.90;;;;;;5063017;28;20037;-64
2022/12/18 03:05:50;;;;;;;15.37;8.17;;;-2.70;99.90;;;;;;5050422;28;20369;-64
2022/12/18 03:08:24;;;;;;;16.88;9.82;;;-2.60;99.90;;;;;;5060010;28;20912;-64
2022/12/18 03:11:03;;;;;;;19.63;10.05;;;-2.60;99.90;;;;;;5060377;28;20111;-64
2022/12/18 03:13:44;;;;;;;18.80;10.43;;;-2.60;99.90;;;;;;5064587;28;20033;-64
2022/12/18 03:16:13;;;;;;;20.60;10.98;;;-2.60;99.90;;;;;;5061123;28;20503;-64
2022/12/18 03:18:47;;;;;;;17.67;10.35;;;-2.70;99.90;;;;;;5061886;28;20044;-64
2022/12/18 03:21:14;;;;;;;17.77;10.02;;;-2.70;99.90;;;;;;5056691;28;20518;-64
2022/12/18 03:23:44;;;;;;;19.77;10.65;;;-2.70;99.90;;;;;;5060512;28;20046;-64
2022/12/18 03:26:14;;;;;;;21.15;10.05;;;-2.70;99.90;;;;;;5062326;28;20115;-64
2022/12/18 03:28:47;;;;;;;18.95;10.10;;;-2.70;99.90;;;;;;5060521;28;20535;-64
2022/12/18 03:31:14;;;;;;;18.30;10.35;;;-2.70;99.90;;;;;;5062669;28;20416;-64
2022/12/18 03:33:55;;;;;;;19.02;10.20;;;-2.70;99.90;;;;;;5061274;28;20119;-64
2022/12/18 03:36:21;;;;;;;17.83;10.02;;;-2.70;99.90;;;;;;5063191;28;20500;-64
2022/12/18 03:38:47;;;;;;;19.67;10.13;;;-2.60;99.90;;;;;;5061353;28;20085;-64
2022/12/18 03:41:22;;;;;;;22.92;10.57;;;-2.60;99.90;;;;;;5057997;28;20119;-64
2022/12/18 03:44:19;;;;;;;17.98;10.40;;;-2.60;99.90;;;;;;5059825;28;20025;-64
2022/12/18 03:46:58;;;;;;;18.75;10.15;;;-2.50;99.90;;;;;;5056926;28;20075;-64
2022/12/18 03:49:51;;;;;;;20.17;10.48;;;-2.70;99.90;;;;;;5059672;28;20443;-64
2022/12/18 03:52:31;;;;;;;20.60;10.25;;;-2.50;99.90;;;;;;5059083;28;20543;-64
2022/12/18 03:54:59;;;;;;;20.65;10.38;;;-2.50;99.90;;;;;;5057801;28;20033;-64
2022/12/18 03:57:28;;;;;;;17.42;10.23;;;-2.50;99.90;;;;;;5062804;28;20651;-63
2022/12/18 04:00:01;;;;;;;17.60;9.30;;;-2.60;99.90;;;;;;5062561;28;20052;-64
2022/12/18 04:02:28;;;;;;;;;;;-2.70;99.90;;;;;;5060147;28;20043;-64
2022/12/18 04:04:58;;;;;;;18.13;9.63;;;-2.60;99.90;;;;;;5058915;28;19923;-64
2022/12/18 04:07:24;;;;;;;19.08;9.90;;;-2.50;99.90;;;;;;5059305;28;20032;-64
2022/12/18 04:09:53;;;;;;;17.55;9.65;;;-2.60;99.90;;;;;;5057162;28;20512;-64
2022/12/18 04:12:18;;;;;;;18.45;9.73;;;-2.60;99.90;;;;;;5060375;28;20043;-64
2022/12/18 04:14:44;;;;;;;17.33;9.70;;;-2.70;99.90;;;;;;5062666;28;20032;-64
2022/12/18 04:17:10;;;;;;;17.27;9.40;;;-2.60;99.90;;;;;;5058757;28;20111;-64
2022/12/18 04:19:35;;;;;;;19.92;9.68;;;-2.50;99.90;;;;;;5061773;28;20495;-64
2022/12/18 04:22:01;;;;;;;15.93;9.07;;;-2.60;99.90;;;;;;5060021;28;20102;-64
2022/12/18 04:24:26;;;;;;;18.60;9.05;;;-2.50;99.90;;;;;;5060640;28;20056;-65
2022/12/18 04:26:52;;;;;;;19.10;9.13;;;-2.60;99.90;;;;;;5062288;28;20190;-64
2022/12/18 04:29:18;;;;;;;19.35;8.88;;;-2.60;99.90;;;;;;5060809;28;20029;-64
2022/12/18 04:31:43;;;;;;;17.33;9.02;;;-2.60;99.90;;;;;;5063987;28;20036;-64
2022/12/18 04:34:09;;;;;;;18.15;8.93;;;-2.50;99.90;;;;;;5061877;28;20047;-64
2022/12/18 04:36:34;;;;;;;14.20;8.43;;;-2.50;99.90;;;;;;5056877;28;20400;-64
2022/12/18 04:39:00;;;;;;;14.18;8.23;;;-2.50;99.90;;;;;;5059916;28;20036;-64
2022/12/18 04:41:25;;;;;;;16.38;8.93;;;-2.40;99.90;;;;;;5062457;28;20017;-64
2022/12/18 04:43:51;;;;;;;15.73;9.40;;;-2.50;99.90;;;;;;5060826;28;20379;-64
2022/12/18 04:46:17;;;;;;;15.43;9.20;;;-2.50;99.90;;;;;;5060002;28;20466;-64
2022/12/18 04:48:46;;;;;;;16.73;8.85;;;-2.40;99.90;;;;;;5063871;28;20394;-64
2022/12/18 04:51:12;;;;;;;16.73;8.80;;;-2.50;99.90;;;;;;5058904;28;20124;-64
2022/12/18 04:53:38;;;;;;;16.70;8.95;;;-2.50;99.90;;;;;;5059797;28;20123;-64
2022/12/18 04:56:13;;;;;;;15.32;8.75;;;-2.50;99.90;;;;;;5059366;28;20106;-64
2022/12/18 04:58:39;;;;;;;15.07;8.20;;;-2.40;99.90;;;;;;5062555;28;20114;-64
2022/12/18 05:01:07;;;;;;;18.20;8.57;;;-2.40;99.90;;;;;;5061794;28;20037;-64
2022/12/18 05:03:33;;;;;;;15.38;8.65;;;-2.50;99.90;;;;;;5061464;28;20025;-64
2022/12/18 05:05:58;;;;;;;14.73;8.27;;;-2.60;99.90;;;;;;5062812;28;20032;-63
2022/12/18 05:08:24;;;;;;;14.88;8.38;;;-2.60;99.90;;;;;;5064927;28;20035;-64
2022/12/18 05:10:57;;;;;;;16.35;8.48;;;-2.60;99.90;;;;;;5054307;28;20029;-64
2022/12/18 05:13:23;;;;;;;17.38;8.57;;;-2.50;99.90;;;;;;5058599;28;20043;-64
2022/12/18 05:15:52;;;;;;;12.23;7.30;;;-2.50;99.90;;;;;;5063012;28;20029;-64
2022/12/18 05:18:18;;;;;;;18.15;9.30;;;-2.50;99.90;;;;;;5062059;28;20404;-64
2022/12/18 05:20:43;;;;;;;15.45;8.70;;;-2.60;99.90;;;;;;5062699;28;20025;-64
2022/12/18 05:23:09;;;;;;;15.57;8.32;;;-2.60;99.90;;;;;;5066968;28;20059;-64
2022/12/18 05:25:34;;;;;;;19.15;9.20;;;-2.50;99.90;;;;;;5061444;28;20037;-64
2022/12/18 05:28:00;;;;;;;16.05;8.15;;;-2.50;99.90;;;;;;5064786;28;20056;-64
2022/12/18 05:30:27;;;;;;;15.88;9.10;;;-2.60;99.90;;;;;;5063298;28;20021;-64
2022/12/18 05:32:52;;;;;;;15.07;8.57;;;-2.50;99.90;;;;;;5064779;28;20056;-63
2022/12/18 05:35:18;;;;;;;13.52;8.25;;;-2.60;99.90;;;;;;5066224;28;20456;-64
2022/12/18 05:37:44;;;;;;;15.25;8.57;;;-2.70;99.90;;;;;;5064872;28;20252;-62
2022/12/18 05:40:11;;;;;;;13.05;7.57;;;-2.80;99.90;;;;;;5057811;28;20375;-63
2022/12/18 05:42:37;;;;;;;14.65;8.10;;;-2.90;99.90;;;;;;5066218;28;20681;-63
2022/12/18 05:45:03;;;;;;;13.70;8.48;;;-2.90;99.90;;;;;;5065676;28;20037;-63
2022/12/18 05:47:28;;;;;;;14.20;7.75;;;-2.80;99.90;;;;;;5063790;28;20047;-63
2022/12/18 05:49:54;;;;;;;13.68;7.63;;;-2.90;99.90;;;;;;5062928;28;20043;-63
2022/12/18 05:52:20;;;;;;;12.20;7.13;;;-2.90;99.90;;;;;;5060708;28;20029;-63
2022/12/18 05:54:46;;;;;;;14.93;7.53;;;-2.90;99.90;;;;;;5063098;28;20033;-63
2022/12/18 05:57:11;;;;;;;14.23;7.57;;;-2.90;99.90;;;;;;5064891;28;20440;-63
2022/12/18 05:59:37;;;;;;;12.75;7.95;;;-2.90;99.90;;;;;;5062770;28;20120;-63
2022/12/18 06:02:03;;;;;;;12.82;7.82;;;-3.00;99.90;;;;;;5062509;28;20078;-63
2022/12/18 06:04:30;;;;;;;12.57;8.10;;;-2.90;99.90;;;;;;5063423;28;20071;-63
2022/12/18 06:06:55;;;;;;;17.67;8.27;;;-3.00;99.90;;;;;;5064990;28;20032;-63
2022/12/18 06:09:21;;;;;;;15.82;8.63;;;-3.00;99.90;;;;;;5062919;28;20046;-63
2022/12/18 06:11:46;;;;;;;15.70;8.88;;;-3.00;99.90;;;;;;5062013;28;20040;-64
2022/12/18 06:14:12;;;;;;;16.90;9.45;;;-3.00;99.90;;;;;;5064767;28;20021;-64
2022/12/18 06:16:37;;;;;;;16.02;8.48;;;-3.00;99.90;;;;;;5065623;28;20029;-63
2022/12/18 06:19:05;;;;;;;12.73;8.13;;;-3.00;99.90;;;;;;5065897;28;20387;-64
2022/12/18 06:21:32;;;;;;;14.98;8.43;;;-3.10;99.90;;;;;;5061974;28;20384;-64
2022/12/18 06:23:57;;;;;;;15.85;8.50;;;-3.00;99.90;;;;;;5064121;28;20033;-64
2022/12/18 06:26:23;;;;;;;14.52;8.85;;;-3.00;99.90;;;;;;5060252;28;20369;-64
2022/12/18 06:28:49;;;;;;;15.73;8.65;;;-3.00;99.90;;;;;;5060961;28;20079;-64
2022/12/18 06:31:15;;;;;;;16.23;8.80;;;-3.00;99.90;;;;;;5064914;28;20151;-64
2022/12/18 06:33:41;;;;;;;15.68;8.35;;;-2.90;99.90;;;;;;5061236;28;20372;-63
2022/12/18 06:36:08;;;;;;;16.48;9.00;;;-2.90;99.90;;;;;;5064247;28;20025;-63
2022/12/18 06:38:36;;;;;;;16.15;8.73;;;-2.70;99.90;;;;;;5063832;28;20357;-63
2022/12/18 06:41:09;;;;;;;13.98;8.20;;;-2.70;99.90;;;;;;5062947;28;20369;-63
2022/12/18 06:43:36;;;;;;;15.65;8.20;;;-2.70;99.90;;;;;;5064870;28;20060;-63
2022/12/18 06:46:03;;;;;;;14.55;7.78;;;-2.80;99.90;;;;;;5059504;28;20464;-63
2022/12/18 06:48:29;;;;;;;13.40;7.75;;;-2.80;99.90;;;;;;5065995;28;20028;-63
2022/12/18 06:50:55;;;;;;;13.45;8.27;;;-2.70;99.90;;;;;;5060057;28;20112;-63
2022/12/18 06:53:21;;;;;;;13.23;7.45;;;-2.70;99.90;;;;;;5062979;28;20108;-62
2022/12/18 06:55:46;;;;;;;13.68;7.80;;;-2.70;99.90;;;;;;5064597;28;20029;-62
2022/12/18 06:58:12;;;;;;;15.23;8.20;;;-2.70;99.90;;;;;;5064906;28;20502;-63
2022/12/18 07:00:37;;;;;;;16.98;8.63;;;-2.70;99.90;;;;;;5063754;28;20051;-63
2022/12/18 07:03:03;;;;;;;18.10;8.35;;;-2.70;99.90;;;;;;5061032;28;20043;-63
2022/12/18 07:05:29;;;;;;;13.82;7.68;;;-2.70;99.90;;;;;;5061947;28;20039;-63
2022/12/18 07:07:54;;;;;;;16.27;8.45;;;-2.60;99.90;;;;;;5063181;28;20481;-63
2022/12/18 07:10:20;;;;;;;15.48;8.23;;;-2.60;99.90;;;;;;5060121;28;20567;-63
2022/12/18 07:12:46;;;;;;;14.75;8.57;;;-2.60;99.90;;;;;;5065257;28;20032;-63
2022/12/18 07:15:11;;;;;;;17.15;8.35;;;-2.70;99.90;;;;;;5065025;28;20028;-63
2022/12/18 07:17:37;;;;;;;16.10;8.73;;;-2.70;99.90;;;;;;5065186;28;20143;-62
2022/12/18 07:20:03;;;;;;;13.57;7.85;;;-2.70;99.90;;;;;;5062442;28;20380;-63
2022/12/18 07:22:28;;;;;;;15.55;8.23;;;-2.60;99.90;;;;;;5064917;28;20334;-63
2022/12/18 07:24:55;;;;;;;13.25;7.85;;;-2.60;99.90;;;;;;5061697;28;20037;-63
2022/12/18 07:27:20;;;;;;;14.20;7.32;;;-2.60;99.90;;;;;;5061910;28;20447;-63
2022/12/18 07:29:46;;;;;;;14.73;7.80;;;-2.60;99.90;;;;;;5063353;28;20408;-63
2022/12/18 07:32:11;;;;;;;16.17;8.73;;;-2.60;99.90;;;;;;5062817;28;20064;-62
2022/12/18 07:34:37;;;;;;;14.63;7.63;;;-2.60;99.90;;;;;;5064347;28;20035;-62
2022/12/18 07:37:03;;;;;;;15.27;7.97;;;-2.50;99.90;;;;;;5064048;28;20040;-63
2022/12/18 07:39:28;;;;;;;14.90;8.25;;;-2.50;99.90;;;;;;5063367;28;20401;-63
2022/12/18 07:44:38;;;;;;;12.98;8.18;;;-2.30;99.90;;;;;;5063242;28;20043;-61
2022/12/18 07:47:04;;;;;;;16.60;8.18;;;-2.30;99.90;;;;;;5063409;28;20143;-61
2022/12/18 07:49:30;;;;;;;14.57;8.23;;;-2.30;99.90;;;;;;5061502;28;20111;-62
2022/12/18 07:51:57;;;;;;;14.65;8.20;;;-2.30;99.90;;;;;;5057020;28;20078;-61
2022/12/18 07:54:23;;;;;;;15.60;8.63;;;-2.20;99.90;;;;;;5060013;28;20093;-61
2022/12/18 07:56:49;;;;;;;14.57;8.63;;;-2.20;99.90;;;;;;5062074;28;20449;-61
2022/12/18 07:59:14;;;;;;;14.63;8.80;;;-2.20;99.90;;;;;;5063538;28;20128;-61
2022/12/18 08:01:40;;;;;;;16.15;8.65;;;-2.20;99.90;;;;;;5064593;28;20033;-61
2022/12/18 08:04:05;;;;;;;14.75;8.13;;;-2.20;99.90;;;;;;5063036;28;20017;-62
2022/12/18 08:06:31;;;;;;;17.48;8.95;;;-2.20;99.90;;;;;;5064216;28;20028;-61
2022/12/18 08:08:57;;;;;;;14.77;8.73;;;-2.10;99.90;;;;;;5062006;28;20032;-62
2022/12/18 08:11:25;;;;;;;16.60;8.52;;;-2.00;99.90;;;;;;5062040;28;20028;-62
2022/12/18 08:13:51;;;;;;;15.65;8.82;;;-1.90;99.90;;;;;;5054575;28;20032;-62
2022/12/18 08:16:17;;;;;;;16.48;8.27;;;-1.90;99.90;;;;;;5061726;28;20547;-61
2022/12/18 08:18:43;;;;;;;15.20;8.18;;;-1.90;99.90;;;;;;5062059;28;20503;-61
2022/12/18 08:21:18;;;;;;;15.38;8.65;;;-1.90;99.90;;;;;;5063106;28;20029;-63
2022/12/18 08:23:44;;;;;;;17.77;8.82;;;-1.80;99.90;;;;;;5063060;28;20093;-61
2022/12/18 08:26:13;;;;;;;15.18;9.20;;;-1.80;99.90;;;;;;5060496;28;20404;-61
2022/12/18 08:28:39;;;;;;;18.98;9.00;;;-1.80;99.90;;;;;;5063432;28;20033;-61
2022/12/18 08:31:05;;;;;;;16.48;8.60;;;-1.80;99.90;;;;;;5061708;28;20086;-61
2022/12/18 08:33:32;;;;;;;18.17;9.45;;;-1.70;99.90;;;;;;5065347;28;20029;-62
2022/12/18 08:36:01;;;;;;;15.93;9.00;;;-1.60;99.90;;;;;;5061280;28;20036;-62
2022/12/18 08:38:27;;;;;;;16.02;9.50;;;-1.60;99.90;;;;;;5059804;28;20024;-61
2022/12/18 08:41:00;;;;;;;17.13;9.25;;;-1.60;99.90;;;;;;5061347;28;20108;-61
2022/12/18 08:46:11;;;;;;;16.40;8.77;;;-1.50;99.90;;;;;;5059397;28;19943;-61
2022/12/18 08:48:36;;;;;;;15.98;8.82;;;-1.50;99.90;;;;;;5065878;28;20464;-62
2022/12/18 08:51:02;;;;;;;14.57;8.10;;;-1.50;99.90;;;;;;5054757;28;20106;-62
2022/12/18 08:53:28;;;;;;;18.33;9.55;;;-1.40;99.90;;;;;;5065466;28;20412;-61
2022/12/18 08:55:53;;;;;;;15.10;8.50;;;-1.40;99.90;;;;;;5069595;28;20043;-61
2022/12/18 08:58:19;;;;;;;22.05;9.45;;;-1.30;99.90;;;;;;5067230;28;20032;-62
2022/12/18 09:00:45;;;;;;;15.35;8.32;;;-1.20;99.90;;;;;;5069352;28;20037;-61
2022/12/18 09:03:18;;;;;;;16.27;8.73;;;-1.20;99.90;;;;;;5069358;28;20179;-61
2022/12/18 09:05:45;;;;;;;18.48;9.00;;;-1.10;99.90;;;;;;5066188;28;20051;-62
2022/12/18 09:08:11;;;;;;;21.85;9.35;;;-1.10;99.90;;;;;;5062739;28;20028;-62
2022/12/18 09:10:45;;;;;;;18.63;9.50;;;-1.10;99.90;;;;;;5060923;28;20122;-62
2022/12/18 09:13:11;;;;;;;16.30;8.95;;;-1.00;99.90;;;;;;5067348;28;20136;-62
2022/12/18 09:15:45;;;;;;;17.40;9.25;;;-1.00;99.90;;;;;;5071666;28;20464;-61
2022/12/18 09:18:12;;;;;;;17.60;9.68;;;-1.00;99.90;;;;;;5064431;28;20444;-61
2022/12/18 09:20:38;;;;;;;15.20;8.77;;;-1.00;99.90;;;;;;5061809;28;20040;-61
2022/12/18 09:23:05;;;;;;;15.82;8.98;;;-1.00;99.90;;;;;;5067323;28;20048;-62
2022/12/18 09:25:35;;;;;;;19.65;9.68;;;-1.00;99.90;;;;;;5062369;28;20103;-61
2022/12/18 09:28:04;;;;;;;17.33;9.48;;;-0.90;99.90;;;;;;5066113;28;20024;-63
2022/12/18 09:30:33;;;;;;;15.98;9.07;;;-0.90;99.90;;;;;;5067092;28;20037;-63
2022/12/18 09:32:59;;;;;;;22.30;9.40;;;-0.90;99.90;;;;;;5062033;28;20455;-63
2022/12/18 09:35:24;;;;;;;16.70;9.18;;;-0.80;99.90;;;;;;5064458;28;20063;-63
2022/12/18 09:37:50;;;;;;;15.57;8.95;;;-0.80;99.90;;;;;;5067137;28;20127;-62
2022/12/18 09:40:22;;;;;;;16.45;8.90;;;-0.70;99.90;;;;;;5066691;28;20143;-63
2022/12/18 09:42:55;;;;;;;21.05;10.20;;;-0.70;99.90;;;;;;5064210;28;20029;-62
2022/12/18 09:45:22;;;;;;;18.60;10.15;;;-0.70;99.90;;;;;;5066106;28;20025;-62
2022/12/18 09:47:49;;;;;;;17.30;9.32;;;-0.60;99.90;;;;;;5062053;28;20039;-62
2022/12/18 09:50:31;;;;;;;15.57;9.25;;;-0.60;99.90;;;;;;5064930;28;20090;-62
2022/12/18 09:53:05;;;;;;;16.80;10.25;;;-0.60;99.90;;;;;;5059678;28;20496;-61
2022/12/18 09:55:43;;;;;;;17.33;9.52;;;-0.60;99.90;;;;;;5060599;28;20480;-61
2022/12/18 09:58:41;;;;;;;21.15;10.45;;;-0.50;99.90;;;;;;5064642;28;20029;-61
2022/12/18 10:01:22;;;;;;;17.75;10.15;;;-0.40;99.90;;;;;;5066410;28;20485;-62
2022/12/18 10:03:48;;;;;;;17.98;10.00;;;-0.30;99.90;;;;;;5063914;28;20542;-62
2022/12/18 10:06:20;;;;;;;20.23;9.98;;;-0.20;99.90;;;;;;5061417;28;20037;-60
2022/12/18 10:08:53;;;;;;;14.13;7.80;;;-0.20;99.90;;;;;;5064486;28;20086;-62
2022/12/18 10:11:50;;;;;;;16.75;9.63;;;-0.20;99.90;;;;;;5061581;28;20043;-61
2022/12/18 10:14:44;;;;;;;16.77;9.38;;;-0.10;99.90;;;;;;5058078;28;20435;-61
2022/12/18 10:17:34;;;;;;;19.85;9.52;;;-0.10;99.90;;;;;;5062450;28;20513;-63
2022/12/18 10:20:24;;;;;;;15.68;9.63;;;-0.10;99.90;;;;;;5064607;28;20344;-61
2022/12/18 10:23:03;;;;;;;17.63;9.70;;;0.00;99.90;;;;;;5062544;28;20033;-61
2022/12/18 10:25:59;;;;;;;19.67;9.55;;;0.00;99.90;;;;;;5063787;28;20083;-61
2022/12/18 10:28:26;;;;;;;16.33;9.23;;;0.10;99.90;;;;;;5061014;28;20029;-61
2022/12/18 10:30:51;;;;;;;17.25;9.15;;;0.10;99.90;;;;;;5062939;28;20543;-62
2022/12/18 10:33:20;;;;;;;19.88;9.45;;;0.20;99.90;;;;;;5062126;28;20119;-61
2022/12/18 10:35:49;;;;;;;17.92;9.82;;;0.10;99.90;;;;;;5066765;28;20028;-61
2022/12/18 10:38:15;;;;;;;18.00;8.85;;;0.20;99.90;;;;;;5062508;28;20097;-61
2022/12/18 10:41:04;;;;;;;17.10;10.45;;;0.30;99.90;;;;;;5058502;28;20036;-61
2022/12/18 10:43:32;;;;;;;15.57;8.98;;;0.30;99.90;;;;;;5064090;28;20036;-62
2022/12/18 10:46:20;;;;;;;18.08;9.88;;;0.30;99.90;;;;;;5060460;28;20488;-61
2022/12/18 10:48:53;;;;;;;14.20;8.50;;;0.30;99.90;;;;;;5062045;28;20483;-61
2022/12/18 10:51:30;;;;;;;15.50;9.00;;;0.30;99.90;;;;;;5059310;28;20025;-61
2022/12/18 10:54:14;;;;;;;17.42;8.77;;;0.40;99.90;;;;;;5062974;28;20087;-61
2022/12/18 10:56:40;;;;;;;15.63;8.80;;;0.40;99.90;;;;;;5061341;28;20090;-61
2022/12/18 10:59:09;;;;;;;17.00;9.25;;;0.40;99.90;;;;;;5060004;28;20086;-61
2022/12/18 11:01:57;;;;;;;18.05;9.98;;;0.40;99.90;;;;;;5062625;28;20032;-61
2022/12/18 11:04:28;;;;;;;17.98;9.75;;;0.40;99.90;;;;;;5063247;28;20452;-61
2022/12/18 11:06:59;;;;;;;17.65;9.27;;;0.40;99.90;;;;;;5063369;28;20430;-61
2022/12/18 11:09:31;;;;;;;17.77;9.55;;;0.50;99.90;;;;;;5061687;28;20086;-61
2022/12/18 11:12:00;;;;;;;18.13;9.75;;;0.50;99.90;;;;;;5062396;28;20032;-61
2022/12/18 11:14:45;;;;;;;16.95;9.90;;;0.60;99.90;;;;;;5061718;28;20472;-62
2022/12/18 11:17:27;;;;;;;18.20;9.80;;;0.50;99.90;;;;;;5064807;28;20443;-61
2022/12/18 11:20:00;;;;;;;15.65;9.30;;;0.50;99.90;;;;;;5062103;28;20036;-62
2022/12/18 11:22:32;;;;;;;17.00;9.30;;;0.60;99.90;;;;;;5059525;28;20033;-62
2022/12/18 11:25:12;;;;;;;17.17;9.13;;;0.60;99.90;;;;;;5062211;28;20401;-61
2022/12/18 11:27:47;;;;;;;15.45;9.77;;;0.70;99.90;;;;;;5063317;28;20484;-61
2022/12/18 11:30:24;;;;;;;15.73;9.68;;;0.70;99.90;;;;;;5060493;28;20506;-61
2022/12/18 11:33:06;;;;;;;16.92;9.80;;;0.70;99.90;;;;;;5061176;28;20488;-60
2022/12/18 11:35:50;;;;;;;18.90;10.07;;;0.70;99.90;;;;;;5061506;28;20028;-60
2022/12/18 11:38:29;;;;;;;18.77;10.90;;;0.70;99.90;;;;;;5064609;28;20036;-62
2022/12/18 11:41:14;;;;;;;17.08;10.50;;;0.80;99.90;;;;;;5059384;28;20063;-61
2022/12/18 11:43:53;;;;;;;16.13;9.15;;;0.90;99.90;;;;;;5063174;28;20028;-60
2022/12/18 11:46:39;;;;;;;17.58;10.23;;;0.80;99.90;;;;;;5059218;28;20028;-61
2022/12/18 11:49:10;;;;;;;16.80;10.27;;;0.80;99.90;;;;;;5063900;28;20043;-62
2022/12/18 11:52:16;;;;;;;16.75;9.88;;;0.80;99.90;;;;;;5058125;28;20111;-60
2022/12/18 11:54:42;;;;;;;17.15;10.45;;;0.80;99.90;;;;;;5059989;28;20171;-62
2022/12/18 11:57:19;;;;;;;19.85;10.85;;;0.80;99.90;;;;;;5063879;28;20107;-61
2022/12/18 12:00:04;;;;;;;20.50;10.35;;;0.90;99.90;;;;;;5058884;28;20044;-62
2022/12/18 12:02:55;;;;;;;19.05;10.90;;;0.80;99.90;;;;;;5059580;28;20028;-61
2022/12/18 12:05:41;;;;;;;18.60;11.18;;;0.80;99.90;;;;;;5060891;28;20044;-62
2022/12/18 12:08:13;;;;;;;16.90;10.02;;;0.90;99.90;;;;;;5062287;28;20519;-61
2022/12/18 12:11:00;;;;;;;18.48;10.77;;;1.00;99.90;;;;;;5061565;28;20077;-60
2022/12/18 12:13:40;;;;;;;19.88;10.48;;;1.00;99.90;;;;;;5059671;28;20115;-62
2022/12/18 12:16:12;;;;;;;23.60;11.85;;;1.00;99.90;;;;;;5062225;28;20036;-62
2022/12/18 12:18:37;;;;;;;22.13;10.93;;;1.00;99.90;;;;;;5063151;28;20117;-61
2022/12/18 12:21:08;;;;;;;18.70;11.32;;;1.00;99.90;;;;;;5062907;28;20067;-62
2022/12/18 12:23:53;;;;;;;19.92;11.20;;;0.90;99.90;;;;;;5063351;28;20024;-61
2022/12/18 12:26:43;;;;;;;23.60;11.73;;;0.90;99.90;;;;;;5061838;28;20380;-61
2022/12/18 12:29:27;;;;;;;23.40;12.02;;;0.90;99.90;;;;;;5059615;28;20033;-61
2022/12/18 12:32:13;;;;;;;21.35;11.65;;;1.00;99.90;;;;;;5061732;28;20098;-61
2022/12/18 12:35:03;;;;;;;20.33;11.23;;;0.90;99.90;;;;;;5059934;28;20645;-62
2022/12/18 12:38:04;;;;;;;21.67;11.77;;;1.00;99.90;;;;;;5063057;28;20033;-61
2022/12/18 12:40:34;;;;;;;19.00;11.40;;;1.00;99.90;;;;;;5060228;28;20028;-62
2022/12/18 12:43:13;;;;;;;21.15;11.43;;;1.10;99.90;;;;;;5064440;28;20044;-62
2022/12/18 12:45:59;;;;;;;25.30;12.10;;;1.10;99.90;;;;;;5066347;28;20029;-61
2022/12/18 12:48:28;;;;;;;21.48;12.07;;;1.00;99.90;;;;;;5061055;28;20033;-61
2022/12/18 12:50:56;;;;;;;25.30;13.05;;;1.00;99.90;;;;;;5061216;28;20086;-61
2022/12/18 12:53:30;;;;;;;48.95;17.23;;;1.00;99.90;;;;;;5057538;28;20514;-61
2022/12/18 12:55:56;;;;;;;23.95;12.35;;;1.00;99.90;;;;;;5057069;28;20279;-60
2022/12/18 12:58:55;;;;;;;20.58;12.35;;;1.00;99.90;;;;;;5058938;28;20201;-61
2022/12/18 13:01:35;;;;;;;29.15;13.25;;;1.00;99.90;;;;;;5059729;28;20033;-61